Terminal Aerodrome Forecast
Issued by NWS

Home | Current Version | Previous Version | Text Only | Print | Product List | Glossary On
Versions: 1 2 3 4 5 6 7 8 9 10 11 12 13 14 15
018
FTUS42 TJSJ 181740
TAFJBQ
TAF
TJBQ 181740Z 1818/1918 VRB05KT P6SM VCTS SCT025CB BKN060
      TEMPO 1818/1821 VRB10G20KT 4SM SHRA BKN025 OVC060
     FM182300 VRB04KT P6SM VCTS SCT030CB BKN080
     FM191200 01007KT P6SM VCSH SCT030 SCT100=

USA.gov is the U.S. government's official web portal to all federal, state and local government web resources and services.